sensor_id;sensor_type;location;lat;lon;timestamp;pressure;altitude;pressure_sealevel;temperature;humidity
39267;BME280;24967;51.154;13.812;2023-06-14T00:01:01;99492.25;;;14.94;56.96
39267;BME280;24967;51.154;13.812;2023-06-14T00:03:31;99488.94;;;14.92;57.22
39267;BME280;24967;51.154;13.812;2023-06-14T00:05:58;99490.66;;;14.85;57.27
39267;BME280;24967;51.154;13.812;2023-06-14T00:08:24;99486.66;;;14.81;57.35
39267;BME280;24967;51.154;13.812;2023-06-14T00:10:51;99486.47;;;14.82;57.83
39267;BME280;24967;51.154;13.812;2023-06-14T00:13:17;99491.56;;;14.77;57.70
39267;BME280;24967;51.154;13.812;2023-06-14T00:15:45;99492.44;;;14.70;57.97
39267;BME280;24967;51.154;13.812;2023-06-14T00:18:12;99483.09;;;14.65;58.09
39267;BME280;24967;51.154;13.812;2023-06-14T00:20:40;99484.47;;;14.61;57.93
39267;BME280;24967;51.154;13.812;2023-06-14T00:23:07;99483.81;;;14.59;58.11
39267;BME280;24967;51.154;13.812;2023-06-14T00:25:34;99484.53;;;14.53;58.18
39267;BME280;24967;51.154;13.812;2023-06-14T00:28:00;99490.03;;;14.52;58.43
39267;BME280;24967;51.154;13.812;2023-06-14T00:30:27;99485.00;;;14.49;59.05
39267;BME280;24967;51.154;13.812;2023-06-14T00:32:57;99479.66;;;14.49;58.81
39267;BME280;24967;51.154;13.812;2023-06-14T00:35:23;99485.56;;;14.44;59.28
39267;BME280;24967;51.154;13.812;2023-06-14T00:37:50;99474.03;;;14.43;59.13
39267;BME280;24967;51.154;13.812;2023-06-14T00:40:17;99480.72;;;14.39;58.88
39267;BME280;24967;51.154;13.812;2023-06-14T00:42:43;99477.09;;;14.32;59.05
39267;BME280;24967;51.154;13.812;2023-06-14T00:45:10;99477.63;;;14.28;59.62
39267;BME280;24967;51.154;13.812;2023-06-14T00:47:37;99477.63;;;14.28;59.52
39267;BME280;24967;51.154;13.812;2023-06-14T00:50:07;99481.63;;;14.32;59.39
39267;BME280;24967;51.154;13.812;2023-06-14T00:52:35;99484.34;;;14.24;59.12
39267;BME280;24967;51.154;13.812;2023-06-14T00:55:02;99475.84;;;14.20;58.93
39267;BME280;24967;51.154;13.812;2023-06-14T00:57:29;99480.88;;;14.15;58.92
39267;BME280;24967;51.154;13.812;2023-06-14T00:59:55;99474.91;;;14.05;58.86
39267;BME280;24967;51.154;13.812;2023-06-14T01:02:22;99472.59;;;14.02;59.08
39267;BME280;24967;51.154;13.812;2023-06-14T01:04:49;99471.09;;;13.99;59.38
39267;BME280;24967;51.154;13.812;2023-06-14T01:07:25;99473.66;;;13.84;59.91
39267;BME280;24967;51.154;13.812;2023-06-14T01:10:02;99468.34;;;13.76;59.95
39267;BME280;24967;51.154;13.812;2023-06-14T01:12:35;99471.69;;;13.70;60.71
39267;BME280;24967;51.154;13.812;2023-06-14T01:15:04;99466.41;;;13.62;61.12
39267;BME280;24967;51.154;13.812;2023-06-14T01:17:31;99458.56;;;13.60;61.19
39267;BME280;24967;51.154;13.812;2023-06-14T01:19:58;99469.25;;;13.60;61.42
39267;BME280;24967;51.154;13.812;2023-06-14T01:22:30;99462.75;;;13.55;62.39
39267;BME280;24967;51.154;13.812;2023-06-14T01:24:58;99465.41;;;13.55;62.92
39267;BME280;24967;51.154;13.812;2023-06-14T01:27:25;99461.09;;;13.45;63.34
39267;BME280;24967;51.154;13.812;2023-06-14T01:29:54;99463.94;;;13.44;63.39
39267;BME280;24967;51.154;13.812;2023-06-14T01:32:23;99466.09;;;13.48;63.74
39267;BME280;24967;51.154;13.812;2023-06-14T01:34:50;99462.13;;;13.44;63.93
39267;BME280;24967;51.154;13.812;2023-06-14T01:37:18;99464.09;;;13.42;64.64
39267;BME280;24967;51.154;13.812;2023-06-14T01:39:45;99470.78;;;13.46;64.19
39267;BME280;24967;51.154;13.812;2023-06-14T01:42:15;99469.09;;;13.54;64.31
39267;BME280;24967;51.154;13.812;2023-06-14T01:44:42;99464.63;;;13.38;64.39
39267;BME280;24967;51.154;13.812;2023-06-14T01:47:10;99460.09;;;13.22;63.41
39267;BME280;24967;51.154;13.812;2023-06-14T01:49:38;99458.44;;;13.21;62.48
39267;BME280;24967;51.154;13.812;2023-06-14T01:52:05;99456.78;;;13.12;61.81
39267;BME280;24967;51.154;13.812;2023-06-14T01:54:34;99456.13;;;13.10;61.89
39267;BME280;24967;51.154;13.812;2023-06-14T01:57:03;99457.13;;;13.09;62.21
39267;BME280;24967;51.154;13.812;2023-06-14T01:59:31;99457.81;;;13.11;62.31
39267;BME280;24967;51.154;13.812;2023-06-14T02:02:00;99455.13;;;13.11;62.49
39267;BME280;24967;51.154;13.812;2023-06-14T02:04:26;99461.97;;;13.13;63.24
39267;BME280;24967;51.154;13.812;2023-06-14T02:06:53;99466.31;;;13.14;63.56
39267;BME280;24967;51.154;13.812;2023-06-14T02:09:19;99461.78;;;13.15;63.80
39267;BME280;24967;51.154;13.812;2023-06-14T02:11:45;99467.31;;;12.89;64.48
39267;BME280;24967;51.154;13.812;2023-06-14T02:14:12;99471.63;;;12.98;64.30
39267;BME280;24967;51.154;13.812;2023-06-14T02:16:41;99475.81;;;13.00;64.23
39267;BME280;24967;51.154;13.812;2023-06-14T02:19:14;99484.50;;;13.02;63.76
39267;BME280;24967;51.154;13.812;2023-06-14T02:21:40;99485.16;;;13.04;63.43
39267;BME280;24967;51.154;13.812;2023-06-14T02:24:06;99479.66;;;13.06;63.45
39267;BME280;24967;51.154;13.812;2023-06-14T02:26:33;99482.50;;;13.04;63.57
39267;BME280;24967;51.154;13.812;2023-06-14T02:28:59;99480.84;;;12.87;63.76
39267;BME280;24967;51.154;13.812;2023-06-14T02:31:26;99481.97;;;12.76;64.29
39267;BME280;24967;51.154;13.812;2023-06-14T02:33:54;99486.50;;;12.76;64.08
39267;BME280;24967;51.154;13.812;2023-06-14T02:36:20;99479.66;;;12.65;65.13
39267;BME280;24967;51.154;13.812;2023-06-14T02:38:47;99481.47;;;12.73;64.36
39267;BME280;24967;51.154;13.812;2023-06-14T02:41:13;99485.50;;;12.69;64.67
39267;BME280;24967;51.154;13.812;2023-06-14T02:43:39;99483.31;;;12.64;64.19
39267;BME280;24967;51.154;13.812;2023-06-14T02:46:06;99483.81;;;12.59;64.41
39267;BME280;24967;51.154;13.812;2023-06-14T02:48:33;99481.78;;;12.61;64.07
39267;BME280;24967;51.154;13.812;2023-06-14T02:51:01;99481.97;;;12.52;64.58
39267;BME280;24967;51.154;13.812;2023-06-14T02:53:27;99493.13;;;12.47;64.78
39267;BME280;24967;51.154;13.812;2023-06-14T02:55:53;99494.28;;;12.45;64.84
39267;BME280;24967;51.154;13.812;2023-06-14T02:58:20;99493.13;;;12.47;64.50
39267;BME280;24967;51.154;13.812;2023-06-14T03:00:47;99494.63;;;12.50;64.29
39267;BME280;24967;51.154;13.812;2023-06-14T03:03:13;99497.13;;;12.51;64.29
39267;BME280;24967;51.154;13.812;2023-06-14T03:05:43;99496.63;;;12.48;64.16
39267;BME280;24967;51.154;13.812;2023-06-14T03:08:12;99504.94;;;12.45;64.42
39267;BME280;24967;51.154;13.812;2023-06-14T03:10:42;99498.94;;;12.43;64.63
39267;BME280;24967;51.154;13.812;2023-06-14T03:13:08;99496.78;;;12.46;64.40
39267;BME280;24967;51.154;13.812;2023-06-14T03:15:35;99504.44;;;12.49;64.43
39267;BME280;24967;51.154;13.812;2023-06-14T03:18:02;99498.09;;;12.42;64.08
39267;BME280;24967;51.154;13.812;2023-06-14T03:20:29;99500.09;;;12.40;64.19
39267;BME280;24967;51.154;13.812;2023-06-14T03:22:58;99504.09;;;12.36;64.71
39267;BME280;24967;51.154;13.812;2023-06-14T03:25:26;99504.28;;;12.34;64.81
39267;BME280;24967;51.154;13.812;2023-06-14T03:27:54;99503.59;;;12.32;64.63
39267;BME280;24967;51.154;13.812;2023-06-14T03:30:21;99507.41;;;12.30;65.23
39267;BME280;24967;51.154;13.812;2023-06-14T03:32:47;99507.91;;;12.33;65.49
39267;BME280;24967;51.154;13.812;2023-06-14T03:35:14;99518.06;;;12.30;65.83
39267;BME280;24967;51.154;13.812;2023-06-14T03:37:42;99517.38;;;12.28;66.41
39267;BME280;24967;51.154;13.812;2023-06-14T03:40:09;99526.56;;;12.33;66.58
39267;BME280;24967;51.154;13.812;2023-06-14T03:42:37;99530.72;;;12.28;67.43
39267;BME280;24967;51.154;13.812;2023-06-14T03:45:05;99531.53;;;12.20;67.79
39267;BME280;24967;51.154;13.812;2023-06-14T03:47:34;99532.69;;;12.18;68.17
39267;BME280;24967;51.154;13.812;2023-06-14T03:50:01;99532.41;;;12.29;67.77
39267;BME280;24967;51.154;13.812;2023-06-14T03:52:28;99532.78;;;12.00;68.77
39267;BME280;24967;51.154;13.812;2023-06-14T03:54:56;99539.31;;;12.05;69.04
39267;BME280;24967;51.154;13.812;2023-06-14T03:57:24;99536.53;;;12.23;68.58
39267;BME280;24967;51.154;13.812;2023-06-14T03:59:52;99535.06;;;12.29;68.73
39267;BME280;24967;51.154;13.812;2023-06-14T04:02:19;99540.41;;;12.29;69.49
39267;BME280;24967;51.154;13.812;2023-06-14T04:04:45;99537.28;;;12.42;69.41
39267;BME280;24967;51.154;13.812;2023-06-14T04:07:13;99542.97;;;12.55;69.30
39267;BME280;24967;51.154;13.812;2023-06-14T04:09:40;99540.81;;;12.67;69.42
39267;BME280;24967;51.154;13.812;2023-06-14T04:12:08;99543.34;;;12.84;69.38
39267;BME280;24967;51.154;13.812;2023-06-14T04:14:36;99547.00;;;12.92;69.69
39267;BME280;24967;51.154;13.812;2023-06-14T04:17:05;99550.19;;;13.03;69.97
39267;BME280;24967;51.154;13.812;2023-06-14T04:19:31;99553.56;;;13.14;69.92
39267;BME280;24967;51.154;13.812;2023-06-14T04:21:58;99549.41;;;13.27;69.72
39267;BME280;24967;51.154;13.812;2023-06-14T04:24:26;99550.22;;;13.36;69.17
39267;BME280;24967;51.154;13.812;2023-06-14T04:26:58;99550.56;;;13.41;69.33
39267;BME280;24967;51.154;13.812;2023-06-14T04:29:26;99554.38;;;13.55;69.00
39267;BME280;24967;51.154;13.812;2023-06-14T04:31:55;99561.91;;;13.43;69.65
39267;BME280;24967;51.154;13.812;2023-06-14T04:34:25;99565.38;;;13.68;68.87
39267;BME280;24967;51.154;13.812;2023-06-14T04:36:55;99570.25;;;13.65;68.68
39267;BME280;24967;51.154;13.812;2023-06-14T04:39:22;99561.53;;;13.71;68.16
39267;BME280;24967;51.154;13.812;2023-06-14T04:41:50;99568.41;;;13.65;69.10
39267;BME280;24967;51.154;13.812;2023-06-14T04:44:18;99580.59;;;13.68;69.11
39267;BME280;24967;51.154;13.812;2023-06-14T04:46:45;99572.88;;;13.73;69.36
39267;BME280;24967;51.154;13.812;2023-06-14T04:49:12;99568.34;;;13.73;69.52
39267;BME280;24967;51.154;13.812;2023-06-14T04:51:42;99577.16;;;13.98;68.99
39267;BME280;24967;51.154;13.812;2023-06-14T04:54:08;99576.16;;;13.91;69.46
39267;BME280;24967;51.154;13.812;2023-06-14T04:56:38;99571.00;;;13.90;68.78
39267;BME280;24967;51.154;13.812;2023-06-14T04:59:05;99580.19;;;13.87;69.64
39267;BME280;24967;51.154;13.812;2023-06-14T05:01:32;99583.69;;;13.88;69.34
39267;BME280;24967;51.154;13.812;2023-06-14T05:03:58;99590.22;;;13.85;69.80
39267;BME280;24967;51.154;13.812;2023-06-14T05:06:25;99582.41;;;13.75;70.40
39267;BME280;24967;51.154;13.812;2023-06-14T05:08:54;99587.59;;;13.77;70.69
39267;BME280;24967;51.154;13.812;2023-06-14T05:11:20;99585.22;;;13.82;71.11
39267;BME280;24967;51.154;13.812;2023-06-14T05:13:49;99581.56;;;13.83;70.91
39267;BME280;24967;51.154;13.812;2023-06-14T05:16:15;99584.97;;;14.16;70.56
39267;BME280;24967;51.154;13.812;2023-06-14T05:18:44;99587.91;;;14.30;70.31
39267;BME280;24967;51.154;13.812;2023-06-14T05:21:11;99589.47;;;14.63;69.53
39267;BME280;24967;51.154;13.812;2023-06-14T05:23:37;99590.09;;;14.97;68.34
39267;BME280;24967;51.154;13.812;2023-06-14T05:26:05;99586.25;;;15.22;67.20
39267;BME280;24967;51.154;13.812;2023-06-14T05:28:31;99591.97;;;15.57;67.44
39267;BME280;24967;51.154;13.812;2023-06-14T05:30:58;99588.44;;;15.94;64.91
39267;BME280;24967;51.154;13.812;2023-06-14T05:33:25;99590.00;;;16.33;63.04
39267;BME280;24967;51.154;13.812;2023-06-14T05:35:51;99589.22;;;16.54;62.39
39267;BME280;24967;51.154;13.812;2023-06-14T05:38:18;99598.31;;;17.04;61.87
39267;BME280;24967;51.154;13.812;2023-06-14T05:40:44;99596.47;;;17.54;59.51
39267;BME280;24967;51.154;13.812;2023-06-14T05:43:12;99588.91;;;18.21;58.93
39267;BME280;24967;51.154;13.812;2023-06-14T05:45:38;99581.63;;;18.63;55.90
39267;BME280;24967;51.154;13.812;2023-06-14T05:48:05;99585.09;;;19.05;54.68
39267;BME280;24967;51.154;13.812;2023-06-14T05:50:31;99590.31;;;19.13;53.95
39267;BME280;24967;51.154;13.812;2023-06-14T05:52:58;99590.75;;;19.50;53.03
39267;BME280;24967;51.154;13.812;2023-06-14T05:55:25;99588.69;;;19.72;52.35
39267;BME280;24967;51.154;13.812;2023-06-14T05:57:51;99586.81;;;19.45;51.39
39267;BME280;24967;51.154;13.812;2023-06-14T06:00:20;99596.34;;;19.55;51.47
39267;BME280;24967;51.154;13.812;2023-06-14T06:02:47;99588.44;;;19.93;51.20
39267;BME280;24967;51.154;13.812;2023-06-14T06:05:14;99593.47;;;19.83;50.41
39267;BME280;24967;51.154;13.812;2023-06-14T06:07:41;99596.78;;;19.92;50.93
39267;BME280;24967;51.154;13.812;2023-06-14T06:10:09;99600.41;;;20.24;49.72
39267;BME280;24967;51.154;13.812;2023-06-14T06:12:36;99593.75;;;20.33;48.88
39267;BME280;24967;51.154;13.812;2023-06-14T06:15:03;99607.59;;;20.63;48.80
39267;BME280;24967;51.154;13.812;2023-06-14T06:17:31;99605.31;;;20.60;48.78
39267;BME280;24967;51.154;13.812;2023-06-14T06:19:57;99614.56;;;20.84;47.32
39267;BME280;24967;51.154;13.812;2023-06-14T06:22:23;99620.25;;;21.08;47.93
39267;BME280;24967;51.154;13.812;2023-06-14T06:24:50;99614.22;;;21.44;46.92
39267;BME280;24967;51.154;13.812;2023-06-14T06:27:16;99615.13;;;21.88;46.17
39267;BME280;24967;51.154;13.812;2023-06-14T06:29:44;99613.03;;;22.08;44.19
39267;BME280;24967;51.154;13.812;2023-06-14T06:32:10;99602.56;;;22.18;45.85
39267;BME280;24967;51.154;13.812;2023-06-14T06:34:38;99606.00;;;22.62;44.24
39267;BME280;24967;51.154;13.812;2023-06-14T06:37:05;99602.63;;;22.49;43.57
39267;BME280;24967;51.154;13.812;2023-06-14T06:39:32;99607.16;;;22.85;44.72
39267;BME280;24967;51.154;13.812;2023-06-14T06:41:59;99607.41;;;23.14;43.53
39267;BME280;24967;51.154;13.812;2023-06-14T06:44:25;99604.63;;;23.32;41.68
39267;BME280;24967;51.154;13.812;2023-06-14T06:46:52;99599.06;;;23.15;41.48
39267;BME280;24967;51.154;13.812;2023-06-14T06:49:18;99617.41;;;22.83;43.81
39267;BME280;24967;51.154;13.812;2023-06-14T06:51:59;99610.41;;;23.36;41.36
39267;BME280;24967;51.154;13.812;2023-06-14T06:54:26;99613.19;;;23.59;41.41
39267;BME280;24967;51.154;13.812;2023-06-14T06:56:52;99607.63;;;23.66;41.72
39267;BME280;24967;51.154;13.812;2023-06-14T06:59:18;99617.59;;;23.72;40.49
39267;BME280;24967;51.154;13.812;2023-06-14T07:01:46;99615.31;;;23.69;41.46
39267;BME280;24967;51.154;13.812;2023-06-14T07:04:12;99620.69;;;23.75;40.05
39267;BME280;24967;51.154;13.812;2023-06-14T07:06:39;99625.56;;;23.55;41.12
39267;BME280;24967;51.154;13.812;2023-06-14T07:09:07;99614.91;;;23.42;41.51
39267;BME280;24967;51.154;13.812;2023-06-14T07:11:38;99613.31;;;23.64;42.29
39267;BME280;24967;51.154;13.812;2023-06-14T07:14:05;99608.09;;;23.63;39.66
39267;BME280;24967;51.154;13.812;2023-06-14T07:16:31;99616.84;;;23.65;39.58
39267;BME280;24967;51.154;13.812;2023-06-14T07:18:58;99612.97;;;23.61;38.04
39267;BME280;24967;51.154;13.812;2023-06-14T07:21:25;99619.41;;;23.36;38.70
39267;BME280;24967;51.154;13.812;2023-06-14T07:23:52;99622.31;;;23.23;40.25
39267;BME280;24967;51.154;13.812;2023-06-14T07:26:20;99628.00;;;23.33;39.37
39267;BME280;24967;51.154;13.812;2023-06-14T07:28:47;99628.09;;;23.26;39.42
39267;BME280;24967;51.154;13.812;2023-06-14T07:31:15;99633.50;;;23.26;40.22
39267;BME280;24967;51.154;13.812;2023-06-14T07:33:43;99625.31;;;23.15;40.05
39267;BME280;24967;51.154;13.812;2023-06-14T07:36:10;99624.47;;;23.02;39.83
39267;BME280;24967;51.154;13.812;2023-06-14T07:38:36;99632.28;;;22.92;39.92
39267;BME280;24967;51.154;13.812;2023-06-14T07:41:02;99622.16;;;22.69;40.58
39267;BME280;24967;51.154;13.812;2023-06-14T07:43:30;99624.03;;;22.69;40.15
39267;BME280;24967;51.154;13.812;2023-06-14T07:45:57;99633.06;;;22.62;40.29
39267;BME280;24967;51.154;13.812;2023-06-14T07:48:23;99640.75;;;22.29;40.77
39267;BME280;24967;51.154;13.812;2023-06-14T07:50:50;99635.50;;;22.34;40.75
39267;BME280;24967;51.154;13.812;2023-06-14T07:53:16;99637.06;;;22.23;41.51
39267;BME280;24967;51.154;13.812;2023-06-14T07:55:43;99637.50;;;22.20;41.06
39267;BME280;24967;51.154;13.812;2023-06-14T07:58:09;99642.25;;;22.25;40.36
39267;BME280;24967;51.154;13.812;2023-06-14T08:00:37;99640.75;;;22.47;40.35
39267;BME280;24967;51.154;13.812;2023-06-14T08:03:04;99632.38;;;22.85;40.05
39267;BME280;24967;51.154;13.812;2023-06-14T08:05:30;99629.72;;;23.16;39.77
39267;BME280;24967;51.154;13.812;2023-06-14T08:07:57;99632.00;;;23.30;40.01
39267;BME280;24967;51.154;13.812;2023-06-14T08:10:23;99630.31;;;23.29;39.38
39267;BME280;24967;51.154;13.812;2023-06-14T08:12:50;99633.59;;;23.20;39.32
39267;BME280;24967;51.154;13.812;2023-06-14T08:15:17;99643.31;;;22.97;39.67
39267;BME280;24967;51.154;13.812;2023-06-14T08:17:46;99637.44;;;23.00;39.84
39267;BME280;24967;51.154;13.812;2023-06-14T08:20:12;99640.16;;;23.00;38.63
39267;BME280;24967;51.154;13.812;2023-06-14T08:22:42;99642.63;;;22.83;38.75
39267;BME280;24967;51.154;13.812;2023-06-14T08:25:09;99637.47;;;22.45;39.69
39267;BME280;24967;51.154;13.812;2023-06-14T08:27:36;99652.94;;;22.56;39.98
39267;BME280;24967;51.154;13.812;2023-06-14T08:30:03;99649.78;;;22.41;39.87
39267;BME280;24967;51.154;13.812;2023-06-14T08:32:29;99650.97;;;22.27;40.22
39267;BME280;24967;51.154;13.812;2023-06-14T08:34:57;99647.31;;;22.21;41.29
39267;BME280;24967;51.154;13.812;2023-06-14T08:37:23;99643.69;;;22.02;42.28
39267;BME280;24967;51.154;13.812;2023-06-14T08:39:52;99650.06;;;21.89;41.64
39267;BME280;24967;51.154;13.812;2023-06-14T08:42:21;99660.22;;;21.69;41.98
39267;BME280;24967;51.154;13.812;2023-06-14T08:44:50;99658.66;;;21.16;42.89
39267;BME280;24967;51.154;13.812;2023-06-14T08:47:17;99650.56;;;21.55;43.15
39267;BME280;24967;51.154;13.812;2023-06-14T08:49:46;99646.84;;;21.49;43.26
39267;BME280;24967;51.154;13.812;2023-06-14T08:52:15;99663.34;;;21.66;43.22
39267;BME280;24967;51.154;13.812;2023-06-14T08:54:46;99646.66;;;21.44;43.27
39267;BME280;24967;51.154;13.812;2023-06-14T08:57:14;99646.28;;;21.40;43.11
39267;BME280;24967;51.154;13.812;2023-06-14T08:59:46;99647.53;;;21.38;43.67
39267;BME280;24967;51.154;13.812;2023-06-14T09:02:14;99644.34;;;21.47;43.05
39267;BME280;24967;51.154;13.812;2023-06-14T09:04:43;99647.69;;;21.49;43.92
39267;BME280;24967;51.154;13.812;2023-06-14T09:07:09;99646.25;;;21.72;43.15
39267;BME280;24967;51.154;13.812;2023-06-14T09:09:39;99652.59;;;21.59;43.20
39267;BME280;24967;51.154;13.812;2023-06-14T09:12:08;99654.19;;;21.35;43.32
39267;BME280;24967;51.154;13.812;2023-06-14T09:14:36;99646.66;;;21.44;43.64
39267;BME280;24967;51.154;13.812;2023-06-14T09:17:05;99652.81;;;21.58;43.77
39267;BME280;24967;51.154;13.812;2023-06-14T09:19:31;99652.38;;;21.61;43.42
39267;BME280;24967;51.154;13.812;2023-06-14T09:21:58;99657.94;;;21.34;43.72
39267;BME280;24967;51.154;13.812;2023-06-14T09:24:24;99659.13;;;21.45;43.16
39267;BME280;24967;51.154;13.812;2023-06-14T09:26:54;99653.66;;;21.83;42.78
39267;BME280;24967;51.154;13.812;2023-06-14T09:29:20;99653.75;;;21.95;41.99
39267;BME280;24967;51.154;13.812;2023-06-14T09:31:47;99655.22;;;21.41;42.83
39267;BME280;24967;51.154;13.812;2023-06-14T09:34:15;99654.59;;;21.70;42.99
39267;BME280;24967;51.154;13.812;2023-06-14T09:36:43;99661.16;;;21.81;42.76
39267;BME280;24967;51.154;13.812;2023-06-14T09:39:10;99640.53;;;22.05;41.63
39267;BME280;24967;51.154;13.812;2023-06-14T09:41:37;99646.94;;;22.11;42.20
39267;BME280;24967;51.154;13.812;2023-06-14T09:44:07;99635.19;;;22.42;41.35
39267;BME280;24967;51.154;13.812;2023-06-14T09:46:34;99639.63;;;22.73;41.14
39267;BME280;24967;51.154;13.812;2023-06-14T09:49:02;99644.53;;;22.28;41.03
39267;BME280;24967;51.154;13.812;2023-06-14T09:51:30;99648.50;;;22.25;41.26
39267;BME280;24967;51.154;13.812;2023-06-14T09:53:59;99642.34;;;22.55;41.33
39267;BME280;24967;51.154;13.812;2023-06-14T09:56:29;99645.31;;;23.02;41.12
39267;BME280;24967;51.154;13.812;2023-06-14T09:58:57;99649.88;;;23.20;39.59
39267;BME280;24967;51.154;13.812;2023-06-14T10:01:29;99647.16;;;23.20;39.68
39267;BME280;24967;51.154;13.812;2023-06-14T10:04:02;99638.31;;;23.54;39.76
39267;BME280;24967;51.154;13.812;2023-06-14T10:06:29;99632.25;;;23.83;38.68
39267;BME280;24967;51.154;13.812;2023-06-14T10:08:57;99625.88;;;23.89;38.82
39267;BME280;24967;51.154;13.812;2023-06-14T10:11:26;99634.38;;;24.16;39.01
39267;BME280;24967;51.154;13.812;2023-06-14T10:13:53;99634.81;;;24.36;38.90
39267;BME280;24967;51.154;13.812;2023-06-14T10:16:21;99633.75;;;24.37;37.91
39267;BME280;24967;51.154;13.812;2023-06-14T10:18:57;99634.78;;;24.60;37.40
39267;BME280;24967;51.154;13.812;2023-06-14T10:21:32;99634.34;;;24.91;37.87
39267;BME280;24967;51.154;13.812;2023-06-14T10:24:03;99627.22;;;24.62;37.81
39267;BME280;24967;51.154;13.812;2023-06-14T10:26:31;99631.25;;;24.59;37.75
39267;BME280;24967;51.154;13.812;2023-06-14T10:28:59;99626.28;;;24.56;37.67
39267;BME280;24967;51.154;13.812;2023-06-14T10:31:42;99622.44;;;24.05;38.86
39267;BME280;24967;51.154;13.812;2023-06-14T10:34:11;99634.72;;;23.72;39.22
39267;BME280;24967;51.154;13.812;2023-06-14T10:36:38;99623.97;;;23.24;39.89
39267;BME280;24967;51.154;13.812;2023-06-14T10:39:07;99621.97;;;23.31;40.77
39267;BME280;24967;51.154;13.812;2023-06-14T10:41:37;99620.44;;;23.35;40.58
39267;BME280;24967;51.154;13.812;2023-06-14T10:44:39;99621.81;;;23.68;40.67
39267;BME280;24967;51.154;13.812;2023-06-14T10:47:07;99601.44;;;23.77;40.27
39267;BME280;24967;51.154;13.812;2023-06-14T10:49:41;99609.19;;;23.62;40.34
39267;BME280;24967;51.154;13.812;2023-06-14T10:52:09;99613.13;;;23.89;40.77
39267;BME280;24967;51.154;13.812;2023-06-14T10:55:02;99615.59;;;23.79;39.95
39267;BME280;24967;51.154;13.812;2023-06-14T10:57:31;99606.28;;;23.87;40.28
39267;BME280;24967;51.154;13.812;2023-06-14T10:59:58;99609.19;;;23.62;41.13
39267;BME280;24967;51.154;13.812;2023-06-14T11:02:51;99610.19;;;24.03;40.79
39267;BME280;24967;51.154;13.812;2023-06-14T11:05:24;99605.28;;;24.40;39.23
39267;BME280;24967;51.154;13.812;2023-06-14T11:08:05;99610.88;;;23.98;41.05
39267;BME280;24967;51.154;13.812;2023-06-14T11:10:43;99611.56;;;24.17;40.56
39267;BME280;24967;51.154;13.812;2023-06-14T11:13:11;99622.75;;;24.32;40.59
39267;BME280;24967;51.154;13.812;2023-06-14T11:15:38;99616.97;;;24.40;39.50
39267;BME280;24967;51.154;13.812;2023-06-14T11:18:06;99614.75;;;24.26;39.35
39267;BME280;24967;51.154;13.812;2023-06-14T11:20:36;99613.94;;;24.02;39.86
39267;BME280;24967;51.154;13.812;2023-06-14T11:23:03;99612.03;;;23.67;40.68
39267;BME280;24967;51.154;13.812;2023-06-14T11:25:30;99615.13;;;23.82;41.31
39267;BME280;24967;51.154;13.812;2023-06-14T11:27:57;99614.53;;;23.92;40.43
39267;BME280;24967;51.154;13.812;2023-06-14T11:30:24;99615.13;;;23.70;41.39
39267;BME280;24967;51.154;13.812;2023-06-14T11:32:52;99611.53;;;23.58;41.95
39267;BME280;24967;51.154;13.812;2023-06-14T11:35:21;99610.13;;;23.67;42.51
39267;BME280;24967;51.154;13.812;2023-06-14T11:37:52;99622.06;;;23.66;42.43
39267;BME280;24967;51.154;13.812;2023-06-14T11:40:19;99620.16;;;23.67;42.27
39267;BME280;24967;51.154;13.812;2023-06-14T11:42:45;99615.44;;;23.62;41.58
39267;BME280;24967;51.154;13.812;2023-06-14T11:45:12;99615.47;;;23.74;41.26
39267;BME280;24967;51.154;13.812;2023-06-14T11:47:39;99614.84;;;23.60;41.36
39267;BME280;24967;51.154;13.812;2023-06-14T11:50:07;99618.66;;;23.83;41.64
39267;BME280;24967;51.154;13.812;2023-06-14T11:52:36;99619.34;;;23.66;42.20
39267;BME280;24967;51.154;13.812;2023-06-14T11:55:05;99619.00;;;23.74;42.08
39267;BME280;24967;51.154;13.812;2023-06-14T11:57:34;99609.59;;;23.35;42.79
39267;BME280;24967;51.154;13.812;2023-06-14T12:00:03;99608.06;;;23.27;42.87
39267;BME280;24967;51.154;13.812;2023-06-14T12:02:31;99603.75;;;22.90;43.57
39267;BME280;24967;51.154;13.812;2023-06-14T12:05:04;99602.34;;;23.17;43.66
39267;BME280;24967;51.154;13.812;2023-06-14T12:07:32;99609.41;;;23.06;43.61
39267;BME280;24967;51.154;13.812;2023-06-14T12:10:08;99606.56;;;22.83;44.09
39267;BME280;24967;51.154;13.812;2023-06-14T12:12:37;99610.59;;;22.92;43.77
39267;BME280;24967;51.154;13.812;2023-06-14T12:15:04;99610.25;;;22.89;44.13
39267;BME280;24967;51.154;13.812;2023-06-14T12:17:32;99599.94;;;22.97;44.29
39267;BME280;24967;51.154;13.812;2023-06-14T12:20:05;99603.59;;;22.73;44.53
39267;BME280;24967;51.154;13.812;2023-06-14T12:22:33;99601.38;;;22.63;44.74
39267;BME280;24967;51.154;13.812;2023-06-14T12:25:00;99607.16;;;22.85;44.72
39267;BME280;24967;51.154;13.812;2023-06-14T12:27:31;99603.84;;;22.83;45.22
39267;BME280;24967;51.154;13.812;2023-06-14T12:29:59;99600.00;;;23.09;44.88
39267;BME280;24967;51.154;13.812;2023-06-14T12:32:28;99601.22;;;23.25;44.00
39267;BME280;24967;51.154;13.812;2023-06-14T12:34:54;99591.34;;;23.42;44.14
39267;BME280;24967;51.154;13.812;2023-06-14T12:37:21;99603.88;;;23.55;43.02
39267;BME280;24967;51.154;13.812;2023-06-14T12:39:48;99590.94;;;23.81;44.53
39267;BME280;24967;51.154;13.812;2023-06-14T12:42:16;99589.47;;;24.37;42.47
39267;BME280;24967;51.154;13.812;2023-06-14T12:44:44;99588.16;;;24.51;41.50
39267;BME280;24967;51.154;13.812;2023-06-14T12:47:10;99594.59;;;23.86;42.02
39267;BME280;24967;51.154;13.812;2023-06-14T12:49:39;99589.41;;;23.96;42.13
39267;BME280;24967;51.154;13.812;2023-06-14T12:52:07;99599.41;;;23.96;43.55
39267;BME280;24967;51.154;13.812;2023-06-14T12:54:33;99593.78;;;23.97;43.38